Tucson, AZ

2:52 AM MST on January 30, 2015 (GMT -0700)
Tucson International | Change Station
CLOSE
Current Station
Airport
Location: Tucson,
Elevation: 2556 ft
Nearby Weather Stations

Elev 2556 ft 32.13 °N, 110.96 °W | Updated 59 minutes ago

Rain
Rain
57 °F
Feels Like 57 °F
N
9
Wind Variable Wind from SE

Today
High -- | Low -- °F
--% Chance of Precip.
Yesterday
High -- | Low -- °F
Precip. -- in
7:18 AM 5:55 PM
Waxing Gibbous, 81% visible
Pressure 29.95 in
Visibility 9.0 miles
Clouds Few 4600 ft
Few 6500 ft
Overcast 8500 ft
Dew Point 53 °F
Humidity 87%
Rainfall 0.05 in
Snow Depth Not available.
UV 0 out of 12
Pollen 4.70 out of 12
Air Quality Not available.
Flu Activity Not available.
METAR KTUS 300853Z 13008KT 9SM -RA FEW046 FEW065 OVC085 14/12 A3002 RMK AO2 RAB01 SLP140 P0005 60006 T01390117 56008

More Conditions Fewer Conditions

Pressure 29.95 in
Visibility 9.0 miles
Clouds Few 4600 ft
Few 6500 ft
Overcast 8500 ft
Dew Point 53 °F
Humidity 87%
Rainfall 0.05 in
Snow Depth Not available.
UV 0 out of 12
Pollen 4.70 out of 12
Air Quality Not available.
Flu Activity Not available.
METAR KTUS 300853Z 13008KT 9SM -RA FEW046 FEW065 OVC085 14/12 A3002 RMK AO2 RAB01 SLP140 P0005 60006 T01390117 56008

More Conditions Fewer Conditions

Nowcast | as of 1:53 am MST on January 30, 2015

Scattered showers will continue to move northeast at 15 to 20 mph across Southeast Arizona. Rainfall amounts through the early morning hours will range from a couple of hundredths up to a quarter of an inch. Isolated heavier amounts may be possible over the higher terrain.

×

10-Day Weather Forecast

Almanac

Astronomy

Jan. 30, 2015 Rise Set
Actual Time
Civil Twilight
Nautical Twilight
Astronomical Twilight
Moon
Length of Visible Light
Length of Day
Tomorrow will be .
, % of the Moon is Illuminated

Today's Extremes

State Highs State Lows

Community

WunderPhotos

Upload Photos

1,791,737 photos uploaded!

WunderBlogs® & News

Nearby

Air Quality

  Air Quality AQ Index Pollutant
Not available.

Snow Depth

Station Depth Elevation

Earthquake Activity

City Distance Mag. Time & Date
Minimum magnitude displayed is 2.5.

Coastal Water Temperatures

Place Temperature

Nearby Weather Stations